createdAt,value
2018-03-14T00:01:56.753Z,10.13
2018-03-14T00:04:25.335Z,9.20
2018-03-14T00:06:53.793Z,9.93
2018-03-14T00:09:22.764Z,10.20
2018-03-14T00:11:51.793Z,10.10
2018-03-14T00:14:20.768Z,10.13
2018-03-14T00:16:48.980Z,10.43
2018-03-14T00:19:17.222Z,10.73
2018-03-14T00:21:45.419Z,11.70
2018-03-14T00:24:14.387Z,11.03
2018-03-14T00:26:42.713Z,11.40
2018-03-14T00:29:10.916Z,11.60
2018-03-14T00:31:39.109Z,11.30
2018-03-14T00:34:07.384Z,11.27
2018-03-14T00:36:35.660Z,10.90
2018-03-14T00:39:04.031Z,11.60
2018-03-14T00:41:32.300Z,11.53
2018-03-14T00:44:00.538Z,11.40
2018-03-14T00:46:30.049Z,11.57
2018-03-14T00:48:58.278Z,11.80
2018-03-14T00:51:26.504Z,11.43
2018-03-14T00:53:54.722Z,12.23
2018-03-14T00:56:22.976Z,11.40
2018-03-14T00:58:51.181Z,11.73
2018-03-14T01:01:19.377Z,12.30
2018-03-14T01:03:48.349Z,11.37
2018-03-14T01:06:16.559Z,12.27
2018-03-14T01:08:44.821Z,12.23
2018-03-14T01:11:14.004Z,12.47
2018-03-14T01:13:43.004Z,11.47
2018-03-14T01:16:11.969Z,11.93
2018-03-14T01:18:40.419Z,11.83
2018-03-14T01:21:08.644Z,12.03
2018-03-14T01:23:36.801Z,12.33
2018-03-14T01:26:05.254Z,12.50
2018-03-14T01:28:33.432Z,11.60
2018-03-14T01:31:01.633Z,12.20
2018-03-14T01:33:29.852Z,11.90
2018-03-14T01:35:58.044Z,11.07
2018-03-14T01:38:26.245Z,12.20
2018-03-14T01:40:54.535Z,12.67
2018-03-14T01:43:22.726Z,12.67
2018-03-14T01:45:51.694Z,11.47
2018-03-14T01:48:20.034Z,11.13
2018-03-14T01:50:48.217Z,11.43
2018-03-14T01:53:28.373Z,12.30
2018-03-14T01:55:56.718Z,12.03
2018-03-14T01:58:25.744Z,11.63
2018-03-14T02:00:54.021Z,11.60
2018-03-14T02:03:22.229Z,11.60
2018-03-14T02:05:50.452Z,11.30
2018-03-14T02:08:18.668Z,10.47
2018-03-14T02:10:46.884Z,11.50
2018-03-14T02:13:15.880Z,11.03
2018-03-14T02:15:44.903Z,11.70
2018-03-14T02:18:13.192Z,11.53
2018-03-14T02:20:41.420Z,11.50
2018-03-14T02:23:10.468Z,11.93
2018-03-14T02:25:38.677Z,10.97
2018-03-14T02:28:06.879Z,11.00
2018-03-14T02:30:35.205Z,11.17
2018-03-14T02:33:03.409Z,11.03
2018-03-14T02:35:31.604Z,11.13
2018-03-14T02:37:59.861Z,11.17
2018-03-14T02:42:52.604Z,10.63
2018-03-14T02:45:20.881Z,10.13
2018-03-14T02:47:49.214Z,9.90
2018-03-14T02:50:18.825Z,10.47
2018-03-14T02:52:47.059Z,10.47
2018-03-14T02:55:15.288Z,10.40
2018-03-14T02:57:43.472Z,10.03
2018-03-14T03:00:11.746Z,10.10
2018-03-14T03:02:39.993Z,10.33
2018-03-14T03:05:08.432Z,9.87
2018-03-14T03:07:36.644Z,10.43
2018-03-14T03:10:04.883Z,10.43
2018-03-14T03:12:33.081Z,10.47
2018-03-14T03:15:02.100Z,11.00
2018-03-14T03:17:30.294Z,11.17
2018-03-14T03:19:58.515Z,9.87
2018-03-14T03:22:26.837Z,9.77
2018-03-14T03:24:55.008Z,10.17
2018-03-14T03:27:23.252Z,10.67
2018-03-14T03:29:52.273Z,10.23
2018-03-14T03:32:20.461Z,11.20
2018-03-14T03:34:48.671Z,10.83
2018-03-14T03:37:16.933Z,10.73
2018-03-14T03:39:45.151Z,11.03
2018-03-14T03:42:14.115Z,11.20
2018-03-14T03:44:43.536Z,11.20
2018-03-14T03:47:12.633Z,10.60
2018-03-14T03:49:41.612Z,10.40
2018-03-14T03:52:09.979Z,11.37
2018-03-14T03:54:38.224Z,10.53
2018-03-14T03:57:06.429Z,10.23
2018-03-14T03:59:34.660Z,10.67
2018-03-14T04:02:03.662Z,10.77
2018-03-14T04:04:31.904Z,11.10
2018-03-14T04:07:00.936Z,11.23
2018-03-14T04:09:29.144Z,11.73
2018-03-14T04:11:57.360Z,10.57
2018-03-14T04:14:26.381Z,11.20
2018-03-14T04:16:54.577Z,12.20
2018-03-14T04:19:22.780Z,12.83
2018-03-14T04:21:51.797Z,12.60
2018-03-14T04:24:20.080Z,12.20
2018-03-14T04:26:48.295Z,12.40
2018-03-14T04:29:16.504Z,12.00
2018-03-14T04:31:45.476Z,12.97
2018-03-14T04:34:13.684Z,13.13
2018-03-14T04:36:44.708Z,12.27
2018-03-14T04:39:13.034Z,13.87
2018-03-14T04:41:41.240Z,13.00
2018-03-14T04:44:09.511Z,13.97
2018-03-14T04:46:37.708Z,13.23
2018-03-14T04:49:06.732Z,13.30
2018-03-14T04:51:35.697Z,15.13
2018-03-14T04:54:04.686Z,14.33
2018-03-14T04:56:32.900Z,13.67
2018-03-14T04:59:01.422Z,15.17
2018-03-14T05:01:29.617Z,15.37
2018-03-14T05:03:57.847Z,15.80
2018-03-14T05:06:26.053Z,16.70
2018-03-14T05:08:54.280Z,15.30
2018-03-14T05:11:22.496Z,15.53
2018-03-14T05:13:50.692Z,16.90
2018-03-14T05:16:18.956Z,17.93
2018-03-14T05:18:47.255Z,16.93
2018-03-14T05:21:16.390Z,18.50
2018-03-14T05:23:44.633Z,17.07
2018-03-14T05:26:12.827Z,16.27
2018-03-14T05:28:41.077Z,18.90
2018-03-14T05:31:09.481Z,16.97
2018-03-14T05:33:38.452Z,16.33
2018-03-14T05:36:06.795Z,17.87
2018-03-14T05:38:35.005Z,15.90
2018-03-14T05:41:03.210Z,17.30
2018-03-14T05:43:31.828Z,16.77
2018-03-14T05:46:00.033Z,16.70
2018-03-14T05:48:28.226Z,16.90
2018-03-14T05:50:56.532Z,17.27
2018-03-14T05:53:24.753Z,16.80
2018-03-14T05:55:52.946Z,17.97
2018-03-14T05:58:21.272Z,16.77
2018-03-14T06:00:49.475Z,17.43
2018-03-14T06:03:17.681Z,17.27
2018-03-14T06:05:46.710Z,17.97
2018-03-14T06:08:14.904Z,16.53
2018-03-14T06:10:43.272Z,17.40
2018-03-14T06:13:11.638Z,16.20
2018-03-14T06:15:39.828Z,16.20
2018-03-14T06:18:08.030Z,16.43
2018-03-14T06:20:36.250Z,17.27
2018-03-14T06:23:05.274Z,16.70
2018-03-14T06:25:33.467Z,15.50
2018-03-14T06:28:02.922Z,19.03
2018-03-14T06:30:31.125Z,17.57
2018-03-14T06:32:59.324Z,18.00
2018-03-14T06:35:27.560Z,18.77
2018-03-14T06:37:55.748Z,17.50
2018-03-14T06:40:23.941Z,22.60
2018-03-14T06:42:52.192Z,17.83
2018-03-14T06:45:20.456Z,18.13
2018-03-14T06:47:48.648Z,17.50
2018-03-14T06:50:16.976Z,18.73
2018-03-14T06:52:45.997Z,19.27
2018-03-14T06:55:14.209Z,18.70
2018-03-14T06:57:42.464Z,18.30
2018-03-14T07:00:22.293Z,17.57
2018-03-14T07:03:03.073Z,18.10
2018-03-14T07:05:42.948Z,17.27
2018-03-14T07:08:12.055Z,16.63
2018-03-14T07:10:40.269Z,19.00
2018-03-14T07:13:09.267Z,19.03
2018-03-14T07:15:38.256Z,19.00
2018-03-14T07:18:07.329Z,18.97
2018-03-14T07:20:35.664Z,18.90
2018-03-14T07:23:03.941Z,21.63
2018-03-14T07:25:32.133Z,20.77
2018-03-14T07:28:00.347Z,18.93
2018-03-14T07:30:29.394Z,19.87
2018-03-14T07:32:57.631Z,21.53
2018-03-14T07:35:26.737Z,21.50
2018-03-14T07:37:54.998Z,22.77
2018-03-14T07:40:23.180Z,19.57
2018-03-14T07:42:51.459Z,23.43
2018-03-14T07:45:19.654Z,22.90
2018-03-14T07:47:48.721Z,24.47
2018-03-14T07:50:17.831Z,21.97
2018-03-14T07:52:46.178Z,23.93
2018-03-14T07:55:14.453Z,25.27
2018-03-14T07:57:43.424Z,23.90
2018-03-14T08:00:11.648Z,22.97
2018-03-14T08:02:39.857Z,20.83
2018-03-14T08:05:08.171Z,25.53
2018-03-14T08:07:36.461Z,21.73
2018-03-14T08:10:05.498Z,20.50
2018-03-14T08:12:33.685Z,21.87
2018-03-14T08:15:02.027Z,20.93
2018-03-14T08:17:30.393Z,21.70
2018-03-14T08:19:59.357Z,20.30
2018-03-14T08:22:27.654Z,21.60
2018-03-14T08:24:56.652Z,21.50
2018-03-14T08:27:25.648Z,23.83
2018-03-14T08:29:54.641Z,21.33
2018-03-14T08:32:23.653Z,21.77
2018-03-14T08:34:51.984Z,21.27
2018-03-14T08:37:20.362Z,22.37
2018-03-14T08:39:48.593Z,21.67
2018-03-14T08:42:16.836Z,21.00
2018-03-14T08:44:45.849Z,20.37
2018-03-14T08:47:14.138Z,22.60
2018-03-14T08:49:42.381Z,19.77
2018-03-14T08:52:11.409Z,17.93
2018-03-14T08:54:40.893Z,20.73
2018-03-14T08:57:09.125Z,20.00
2018-03-14T08:59:37.432Z,18.83
2018-03-14T09:02:06.457Z,19.07
2018-03-14T09:04:34.669Z,19.17
2018-03-14T09:07:02.941Z,16.73
2018-03-14T09:09:31.166Z,19.23
2018-03-14T09:11:59.416Z,19.00
2018-03-14T09:14:27.732Z,18.77
2018-03-14T09:16:55.945Z,20.40
2018-03-14T09:19:24.187Z,17.80
2018-03-14T09:21:52.600Z,21.13
2018-03-14T09:24:21.009Z,19.60
2018-03-14T09:26:49.213Z,19.63
2018-03-14T09:29:17.532Z,17.97
2018-03-14T09:31:45.733Z,20.50
2018-03-14T09:34:14.016Z,17.47
2018-03-14T09:36:43.040Z,18.37
2018-03-14T09:39:11.311Z,17.70
2018-03-14T09:41:39.521Z,17.80
2018-03-14T09:44:07.798Z,14.07
2018-03-14T09:46:35.995Z,15.97
2018-03-14T09:49:04.205Z,17.03
2018-03-14T09:51:32.481Z,16.40
2018-03-14T09:54:00.713Z,17.63
2018-03-14T09:56:28.968Z,16.73
2018-03-14T09:58:57.197Z,16.07
2018-03-14T10:01:26.176Z,15.37
2018-03-14T10:03:54.458Z,16.60
2018-03-14T10:06:22.689Z,15.37
2018-03-14T10:08:50.992Z,17.30
2018-03-14T10:11:19.398Z,17.17
2018-03-14T10:13:48.388Z,16.77
2018-03-14T10:16:16.682Z,14.23
2018-03-14T10:18:44.927Z,15.90
2018-03-14T10:21:13.193Z,16.90
2018-03-14T10:23:41.443Z,15.87
2018-03-14T10:26:09.652Z,16.27
2018-03-14T10:28:37.913Z,17.10
2018-03-14T10:31:06.130Z,17.63
2018-03-14T10:33:34.348Z,16.20
2018-03-14T10:36:02.584Z,16.23
2018-03-14T10:38:30.789Z,19.10
2018-03-14T10:40:59.085Z,18.70
2018-03-14T10:43:27.401Z,17.30
2018-03-14T10:45:56.478Z,16.00
2018-03-14T10:48:24.761Z,18.43
2018-03-14T10:50:53.017Z,17.83
2018-03-14T10:53:21.290Z,18.83
2018-03-14T10:55:49.502Z,19.10
2018-03-14T10:58:18.909Z,17.70
2018-03-14T11:00:53.600Z,17.53
2018-03-14T11:03:22.046Z,18.23
2018-03-14T11:05:50.334Z,17.23
2018-03-14T11:08:18.564Z,16.60
2018-03-14T11:10:46.949Z,17.93
2018-03-14T11:13:15.196Z,18.07
2018-03-14T11:15:43.377Z,17.37
2018-03-14T11:18:11.805Z,17.27
2018-03-14T11:20:40.741Z,19.50
2018-03-14T11:23:08.929Z,20.37
2018-03-14T11:25:38.143Z,18.43
2018-03-14T11:28:06.299Z,18.33
2018-03-14T11:30:34.484Z,18.87
2018-03-14T11:33:03.511Z,18.27
2018-03-14T11:35:31.729Z,18.40
2018-03-14T11:37:59.983Z,17.63
2018-03-14T11:40:29.527Z,18.13
2018-03-14T11:42:57.717Z,19.00
2018-03-14T11:45:26.672Z,20.10
2018-03-14T11:47:55.070Z,16.40
2018-03-14T11:50:23.299Z,15.37
2018-03-14T11:52:51.488Z,15.30
2018-03-14T11:55:19.848Z,14.97
2018-03-14T11:57:48.108Z,15.50
2018-03-14T12:00:16.458Z,15.57
2018-03-14T12:02:45.512Z,15.10
2018-03-14T12:05:13.710Z,14.67
2018-03-14T12:07:41.949Z,14.77
2018-03-14T12:10:10.180Z,14.87
2018-03-14T12:12:39.128Z,14.33
2018-03-14T12:15:07.402Z,13.40
2018-03-14T12:17:35.634Z,12.67
2018-03-14T12:20:04.657Z,13.43
2018-03-14T12:22:32.968Z,12.93
2018-03-14T12:25:01.300Z,15.67
2018-03-14T12:27:29.536Z,14.43
2018-03-14T12:29:57.771Z,13.30
2018-03-14T12:32:26.012Z,13.90
2018-03-14T12:34:55.068Z,14.90
2018-03-14T12:37:23.329Z,15.23
2018-03-14T12:39:51.774Z,14.53
2018-03-14T12:42:20.997Z,14.57
2018-03-14T12:44:49.385Z,15.50
2018-03-14T12:47:17.664Z,14.63
2018-03-14T12:49:46.056Z,16.53
2018-03-14T12:52:14.417Z,17.03
2018-03-14T12:54:42.896Z,16.47
2018-03-14T12:57:11.498Z,16.33
2018-03-14T12:59:39.647Z,17.40
2018-03-14T13:02:07.913Z,18.23
2018-03-14T13:04:36.110Z,18.33
2018-03-14T13:07:04.336Z,17.73
2018-03-14T13:09:33.380Z,20.83
2018-03-14T13:12:01.635Z,20.80
2018-03-14T13:14:29.908Z,20.13
2018-03-14T13:16:58.508Z,19.37
2018-03-14T13:19:27.461Z,18.43
2018-03-14T13:21:56.424Z,19.20
2018-03-14T13:24:24.736Z,18.27
2018-03-14T13:26:53.184Z,18.67
2018-03-14T13:29:21.435Z,19.63
2018-03-14T13:31:49.665Z,19.70
2018-03-14T13:34:18.742Z,19.60
2018-03-14T13:36:46.948Z,19.80
2018-03-14T13:39:15.193Z,20.23
2018-03-14T13:41:43.404Z,18.37
2018-03-14T13:44:11.693Z,18.20
2018-03-14T13:46:40.006Z,20.77
2018-03-14T13:49:08.295Z,19.00
2018-03-14T13:51:36.640Z,19.30
2018-03-14T13:54:04.902Z,18.30
2018-03-14T13:56:33.114Z,18.37
2018-03-14T13:59:01.310Z,18.70
2018-03-14T14:01:30.824Z,19.37
2018-03-14T14:03:59.296Z,18.30
2018-03-14T14:06:27.656Z,19.37
2018-03-14T14:08:55.933Z,17.37
2018-03-14T14:11:24.125Z,18.37
2018-03-14T14:13:53.088Z,17.90
2018-03-14T14:16:21.449Z,18.07
2018-03-14T14:18:49.624Z,18.67
2018-03-14T14:21:17.968Z,19.53
2018-03-14T14:23:47.104Z,20.43
2018-03-14T14:26:15.495Z,19.20
2018-03-14T14:28:43.680Z,19.60
2018-03-14T14:31:11.996Z,19.37
2018-03-14T14:33:40.178Z,20.07
2018-03-14T14:36:08.401Z,21.00
2018-03-14T14:38:36.625Z,20.33
2018-03-14T14:41:04.860Z,20.30
2018-03-14T14:43:33.106Z,20.07
2018-03-14T14:46:01.335Z,18.63
2018-03-14T14:48:30.310Z,19.03
2018-03-14T14:50:58.533Z,19.83
2018-03-14T14:53:28.161Z,20.67
2018-03-14T14:55:56.390Z,21.23
2018-03-14T14:58:25.375Z,19.60
2018-03-14T15:00:54.352Z,20.63
2018-03-14T15:03:22.593Z,21.23
2018-03-14T15:05:50.998Z,21.73
2018-03-14T15:08:19.208Z,21.53
2018-03-14T15:10:47.416Z,21.07
2018-03-14T15:13:15.613Z,19.10
2018-03-14T15:15:45.455Z,20.13
2018-03-14T15:18:14.469Z,20.43
2018-03-14T15:20:42.663Z,20.73
2018-03-14T15:23:10.969Z,19.97
2018-03-14T15:25:39.169Z,20.30
2018-03-14T15:28:07.425Z,20.60
2018-03-14T15:30:35.765Z,22.37
2018-03-14T15:33:04.701Z,21.37
2018-03-14T15:38:08.725Z,21.63
2018-03-14T15:40:36.921Z,20.47
2018-03-14T15:43:06.171Z,23.53
2018-03-14T15:45:35.124Z,21.57
2018-03-14T15:48:03.317Z,22.30
2018-03-14T15:50:31.522Z,19.57
2018-03-14T15:52:59.759Z,19.77
2018-03-14T15:55:28.767Z,20.97
2018-03-14T15:57:57.069Z,20.20
2018-03-14T16:00:25.548Z,20.23
2018-03-14T16:02:54.678Z,22.33
2018-03-14T16:05:22.880Z,20.23
2018-03-14T16:07:52.776Z,20.47
2018-03-14T16:10:21.808Z,20.90
2018-03-14T16:12:50.323Z,21.73
2018-03-14T16:15:18.599Z,22.47
2018-03-14T16:17:46.965Z,22.07
2018-03-14T16:20:15.166Z,21.87
2018-03-14T16:22:43.597Z,21.90
2018-03-14T16:25:11.937Z,21.40
2018-03-14T16:27:40.186Z,21.43
2018-03-14T16:30:08.442Z,21.00
2018-03-14T16:32:37.051Z,22.93
2018-03-14T16:35:05.734Z,22.63
2018-03-14T16:37:33.920Z,21.60
2018-03-14T16:40:02.309Z,21.70
2018-03-14T16:42:30.565Z,22.57
2018-03-14T16:44:59.697Z,19.17
2018-03-14T16:47:29.041Z,19.13
2018-03-14T16:49:57.231Z,21.50
2018-03-14T16:52:25.450Z,21.73
2018-03-14T16:54:54.430Z,24.10
2018-03-14T17:00:03.344Z,23.53
2018-03-14T17:02:31.621Z,24.83
2018-03-14T17:04:59.912Z,27.70
2018-03-14T17:07:29.915Z,27.20
2018-03-14T17:09:58.174Z,28.10
2018-03-14T17:12:26.387Z,26.73
2018-03-14T17:14:54.630Z,26.63
2018-03-14T17:17:22.841Z,25.47
2018-03-14T17:19:51.110Z,23.23
2018-03-14T17:22:19.704Z,23.07
2018-03-14T17:24:47.986Z,24.77
2018-03-14T17:27:16.213Z,25.50
2018-03-14T17:29:44.802Z,21.83
2018-03-14T17:32:13.032Z,23.63
2018-03-14T17:34:41.562Z,22.97
2018-03-14T17:37:13.126Z,23.53
2018-03-14T17:39:41.542Z,23.53
2018-03-14T17:42:09.792Z,21.07
2018-03-14T17:44:38.169Z,23.77
2018-03-14T17:47:06.396Z,23.47
2018-03-14T17:49:34.679Z,21.57
2018-03-14T17:52:02.942Z,21.57
2018-03-14T17:54:32.216Z,20.63
2018-03-14T17:57:00.585Z,22.00
2018-03-14T17:59:29.199Z,23.13
2018-03-14T18:01:57.478Z,23.53
2018-03-14T18:04:25.675Z,24.10
2018-03-14T18:06:54.807Z,25.17
2018-03-14T18:09:23.823Z,25.60
2018-03-14T18:11:52.096Z,24.73
2018-03-14T18:14:20.288Z,26.40
2018-03-14T18:16:48.597Z,24.43
2018-03-14T18:19:17.593Z,25.23
2018-03-14T18:21:46.654Z,26.83
2018-03-14T18:24:14.871Z,25.10
2018-03-14T18:26:43.853Z,27.23
2018-03-14T18:29:12.974Z,26.70
2018-03-14T18:31:41.940Z,25.70
2018-03-14T18:34:11.444Z,26.83
2018-03-14T18:36:40.457Z,29.10
2018-03-14T18:39:08.727Z,27.57
2018-03-14T18:41:37.695Z,29.33
2018-03-14T18:44:05.980Z,26.57
2018-03-14T18:46:34.173Z,26.07
2018-03-14T18:49:02.369Z,26.90
2018-03-14T18:51:30.709Z,27.83
2018-03-14T18:53:59.681Z,25.57
2018-03-14T18:56:27.891Z,28.97
2018-03-14T18:58:56.957Z,30.43
2018-03-14T19:01:25.196Z,29.17
2018-03-14T19:03:53.407Z,27.87
2018-03-14T19:06:22.893Z,28.48
2018-03-14T19:08:51.189Z,28.63
2018-03-14T19:11:19.456Z,25.23
2018-03-14T19:13:47.681Z,29.77
2018-03-14T19:16:15.921Z,30.80
2018-03-14T19:18:44.165Z,28.83
2018-03-14T19:21:12.484Z,28.80
2018-03-14T19:23:41.461Z,32.30
2018-03-14T19:26:09.653Z,30.97
2018-03-14T19:28:39.318Z,29.73
2018-03-14T19:31:07.489Z,29.17
2018-03-14T19:33:36.050Z,29.50
2018-03-14T19:36:04.367Z,25.87
2018-03-14T19:38:32.884Z,31.67
2018-03-14T19:41:01.873Z,31.93
2018-03-14T19:43:30.902Z,30.90
2018-03-14T19:45:59.912Z,32.63
2018-03-14T19:48:28.278Z,29.43
2018-03-14T19:50:57.296Z,28.33
2018-03-14T19:53:26.423Z,32.47
2018-03-14T19:55:54.864Z,28.17
2018-03-14T19:58:23.222Z,33.17
2018-03-14T20:00:52.925Z,31.97
2018-03-14T20:03:23.014Z,32.90
2018-03-14T20:05:52.084Z,29.50
2018-03-14T20:08:20.517Z,33.90
2018-03-14T20:10:49.479Z,29.10
2018-03-14T20:13:17.761Z,33.07
2018-03-14T20:15:46.823Z,29.53
2018-03-14T20:18:15.110Z,30.23
2018-03-14T20:20:43.558Z,28.80
2018-03-14T20:23:11.829Z,27.63
2018-03-14T20:25:40.420Z,32.57
2018-03-14T20:28:09.285Z,29.57
2018-03-14T20:30:37.754Z,29.57
2018-03-14T20:33:06.070Z,28.30
2018-03-14T20:35:34.630Z,38.00
2018-03-14T20:38:02.933Z,33.07
2018-03-14T20:40:31.214Z,33.60
2018-03-14T20:42:59.518Z,36.60
2018-03-14T20:45:27.803Z,34.30
2018-03-14T20:47:56.021Z,31.80
2018-03-14T20:50:25.188Z,32.97
2018-03-14T20:52:53.580Z,37.30
2018-03-14T20:55:22.097Z,34.13
2018-03-14T20:57:50.472Z,31.57
2018-03-14T21:00:19.037Z,35.83
2018-03-14T21:02:48.948Z,34.87
2018-03-14T21:05:17.229Z,30.50
2018-03-14T21:07:45.729Z,33.20
2018-03-14T21:10:14.738Z,29.90
2018-03-14T21:12:42.994Z,33.67
2018-03-14T21:15:14.337Z,31.60
2018-03-14T21:17:43.920Z,36.73
2018-03-14T21:20:12.143Z,35.87
2018-03-14T21:22:40.418Z,36.93
2018-03-14T21:25:09.463Z,33.73
2018-03-14T21:27:37.792Z,35.23
2018-03-14T21:30:05.993Z,33.47
2018-03-14T21:32:34.444Z,37.30
2018-03-14T21:35:02.665Z,36.20
2018-03-14T21:37:30.974Z,35.00
2018-03-14T21:40:00.107Z,33.37
2018-03-14T21:42:28.369Z,37.20
2018-03-14T21:44:56.608Z,44.93
2018-03-14T21:47:24.887Z,49.87
2018-03-14T21:49:53.120Z,45.53
2018-03-14T21:52:21.372Z,43.30
2018-03-14T21:54:49.650Z,40.90
2018-03-14T21:57:19.629Z,40.87
2018-03-14T21:59:49.646Z,37.20
2018-03-14T22:02:18.204Z,41.57
2018-03-14T22:04:47.256Z,39.83
2018-03-14T22:07:15.799Z,38.67
2018-03-14T22:09:45.333Z,33.73
2018-03-14T22:12:13.825Z,36.27
2018-03-14T22:14:42.049Z,32.27
2018-03-14T22:17:11.094Z,35.60
2018-03-14T22:19:39.457Z,31.57
2018-03-14T22:22:08.633Z,40.63
2018-03-14T22:24:36.927Z,28.70
2018-03-14T22:27:05.739Z,33.83
2018-03-14T22:29:34.374Z,31.30
2018-03-14T22:32:03.496Z,34.27
2018-03-14T22:34:31.721Z,30.23
2018-03-14T22:36:59.972Z,37.43
2018-03-14T22:39:28.457Z,28.30
2018-03-14T22:41:57.605Z,39.30
2018-03-14T22:44:26.936Z,34.73
2018-03-14T22:46:56.839Z,31.60
2018-03-14T22:49:25.060Z,32.90
2018-03-14T22:51:54.147Z,31.87
2018-03-14T22:54:22.625Z,33.37
2018-03-14T22:56:51.644Z,33.00
2018-03-14T22:59:21.310Z,39.47
2018-03-14T23:01:49.838Z,29.00
2018-03-14T23:04:18.089Z,34.80
2018-03-14T23:06:47.288Z,34.80
2018-03-14T23:09:16.337Z,28.77
2018-03-14T23:11:44.600Z,29.07
2018-03-14T23:14:12.968Z,32.27
2018-03-14T23:16:41.671Z,22.73
2018-03-14T23:19:09.933Z,23.70
2018-03-14T23:21:38.292Z,24.07
2018-03-14T23:24:07.120Z,31.03
2018-03-14T23:26:36.608Z,23.43
2018-03-14T23:29:06.154Z,25.13
2018-03-14T23:31:34.675Z,23.33
2018-03-14T23:34:03.276Z,25.17
2018-03-14T23:36:31.709Z,32.80
2018-03-14T23:39:00.164Z,25.87
2018-03-14T23:41:30.614Z,23.10
2018-03-14T23:43:59.301Z,25.43
2018-03-14T23:46:27.643Z,31.03
2018-03-14T23:48:55.942Z,24.03
2018-03-14T23:51:25.244Z,22.90
2018-03-14T23:53:54.383Z,23.03
2018-03-14T23:56:22.724Z,21.47
2018-03-14T23:58:51.037Z,24.73
